createdAt,value
2019-04-20T00:01:47.253Z,102309.47
2019-04-20T00:04:23.375Z,102303.59
2019-04-20T00:06:54.095Z,102306.33
2019-04-20T00:09:28.776Z,102304.48
2019-04-20T00:12:07.077Z,102301.62
2019-04-20T00:14:33.882Z,102303.01
2019-04-20T00:17:03.439Z,102301.17
2019-04-20T00:19:40.511Z,102302.98
2019-04-20T00:22:15.159Z,102294.99
2019-04-20T00:25:06.623Z,102294.06
2019-04-20T00:28:15.264Z,102306.23
2019-04-20T00:30:48.107Z,102295.52
2019-04-20T00:33:09.551Z,102294.54
2019-04-20T00:35:33.847Z,102292.20
2019-04-20T00:38:05.622Z,102293.83
2019-04-20T00:40:41.228Z,102287.98
2019-04-20T00:43:19.626Z,102294.83
2019-04-20T00:45:51.519Z,102294.87
2019-04-20T00:48:32.665Z,102291.12
2019-04-20T00:51:06.954Z,102295.56
2019-04-20T00:53:31.384Z,102288.67
2019-04-20T00:55:57.193Z,102293.12
2019-04-20T00:58:35.952Z,102293.39
2019-04-20T01:01:20.534Z,102296.47
2019-04-20T01:03:52.692Z,102294.63
2019-04-20T01:06:46.764Z,102296.62
2019-04-20T01:09:24.450Z,102293.23
2019-04-20T01:11:56.627Z,102290.87
2019-04-20T01:14:35.855Z,102290.16
2019-04-20T01:17:11.420Z,102290.67
2019-04-20T01:19:33.915Z,102290.93
2019-04-20T01:22:10.732Z,102293.55
2019-04-20T01:24:43.281Z,102288.74
2019-04-20T01:27:28.454Z,102289.88
2019-04-20T01:29:49.401Z,102290.64
2019-04-20T01:32:27.849Z,102289.30
2019-04-20T01:34:58.564Z,102296.70
2019-04-20T01:37:33.719Z,102288.21
2019-04-20T01:40:15.001Z,102294.14
2019-04-20T01:42:46.762Z,102297.22
2019-04-20T01:45:27.064Z,102301.39
2019-04-20T01:47:55.860Z,102298.53
2019-04-20T01:50:29.645Z,102299.12
2019-04-20T01:53:10.203Z,102306.98
2019-04-20T01:55:49.368Z,102305.55
2019-04-20T01:58:46.149Z,102307.89
2019-04-20T02:01:25.151Z,102310.98
2019-04-20T02:04:27.975Z,102308.21
2019-04-20T02:07:00.450Z,102303.97
2019-04-20T02:09:32.520Z,102306.33
2019-04-20T02:12:10.353Z,102311.50
2019-04-20T02:14:43.654Z,102313.53
2019-04-20T02:17:19.638Z,102314.56
2019-04-20T02:20:07.975Z,102314.95
2019-04-20T02:22:34.183Z,102315.55
2019-04-20T02:24:47.166Z,102314.41
2019-04-20T02:27:20.631Z,102313.25
2019-04-20T02:30:21.831Z,102311.56
2019-04-20T02:33:07.051Z,102315.79
2019-04-20T02:36:13.247Z,102314.20
2019-04-20T02:39:00.501Z,102311.44
2019-04-20T02:41:42.039Z,102312.61
2019-04-20T02:44:00.747Z,102322.92
2019-04-20T02:46:14.810Z,102324.61
2019-04-20T02:49:04.586Z,102324.96
2019-04-20T02:54:11.470Z,102320.61
2019-04-20T02:56:41.833Z,102326.50
2019-04-20T02:59:25.106Z,102323.09
2019-04-20T03:01:52.150Z,102324.50
2019-04-20T03:04:12.330Z,102321.73
2019-04-20T03:06:55.978Z,102321.44
2019-04-20T03:09:33.105Z,102319.89
2019-04-20T03:12:08.232Z,102323.09
2019-04-20T03:14:30.320Z,102313.00
2019-04-20T03:17:18.210Z,102317.56
2019-04-20T03:19:37.684Z,102314.22
2019-04-20T03:22:21.327Z,102317.33
2019-04-20T03:25:19.241Z,102314.66
2019-04-20T03:28:25.906Z,102314.92
2019-04-20T03:31:33.322Z,102317.52
2019-04-20T03:36:19.834Z,102313.23
2019-04-20T03:38:41.451Z,102318.03
2019-04-20T03:41:09.175Z,102308.31
2019-04-20T03:43:28.723Z,102316.10
2019-04-20T03:46:31.032Z,102315.06
2019-04-20T03:49:38.469Z,102320.39
2019-04-20T03:52:25.897Z,102322.75
2019-04-20T03:55:16.092Z,102329.30
2019-04-20T03:58:03.200Z,102325.06
2019-04-20T04:00:54.259Z,102327.20
2019-04-20T04:03:47.320Z,102332.23
2019-04-20T04:06:23.449Z,102338.41
2019-04-20T04:08:58.724Z,102335.04
2019-04-20T04:11:31.190Z,102338.56
2019-04-20T04:13:48.480Z,102332.85
2019-04-20T04:16:21.976Z,102329.46
2019-04-20T04:19:21.592Z,102336.09
2019-04-20T04:22:26.238Z,102336.56
2019-04-20T04:25:28.712Z,102341.89
2019-04-20T04:28:10.832Z,102342.58
2019-04-20T04:30:43.085Z,102349.13
2019-04-20T04:33:40.272Z,102349.34
2019-04-20T04:35:55.722Z,102352.72
2019-04-20T04:38:36.279Z,102352.86
2019-04-20T04:41:08.447Z,102361.34
2019-04-20T04:43:36.004Z,102356.27
2019-04-20T04:46:07.942Z,102362.05
2019-04-20T04:49:23.313Z,102362.77
2019-04-20T04:51:58.568Z,102360.75
2019-04-20T04:54:50.340Z,102365.81
2019-04-20T04:57:24.780Z,102362.57
2019-04-20T04:59:57.259Z,102361.48
2019-04-20T05:02:33.075Z,102362.56
2019-04-20T05:05:47.340Z,102370.56
2019-04-20T05:08:18.805Z,102367.29
2019-04-20T05:10:43.717Z,102368.53
2019-04-20T05:13:21.937Z,102365.41
2019-04-20T05:16:09.777Z,102370.83
2019-04-20T05:18:55.487Z,102377.49
2019-04-20T05:22:01.305Z,102374.10
2019-04-20T05:24:48.443Z,102373.73
2019-04-20T05:27:36.098Z,102377.52
2019-04-20T05:29:46.761Z,102377.73
2019-04-20T05:32:31.380Z,102375.95
2019-04-20T05:35:16.414Z,102377.52
2019-04-20T05:37:59.776Z,102383.77
2019-04-20T05:40:21.913Z,102379.04
2019-04-20T05:42:59.393Z,102383.70
2019-04-20T05:46:25.352Z,102378.32
2019-04-20T05:49:11.736Z,102375.99
2019-04-20T05:51:39.743Z,102379.51
2019-04-20T05:54:13.584Z,102376.97
2019-04-20T05:56:45.702Z,102367.33
2019-04-20T05:59:19.177Z,102368.00
2019-04-20T06:01:58.865Z,102368.94
2019-04-20T06:05:00.379Z,102363.47
2019-04-20T06:07:25.197Z,102371.52
2019-04-20T06:09:54.503Z,102371.36
2019-04-20T06:12:29.408Z,102372.41
2019-04-20T06:15:21.161Z,102372.11
2019-04-20T06:18:40.090Z,102371.31
2019-04-20T06:21:29.432Z,102371.24
2019-04-20T06:24:16.781Z,102370.08
2019-04-20T06:26:59.265Z,102371.06
2019-04-20T06:30:08.873Z,102368.14
2019-04-20T06:33:53.352Z,102371.91
2019-04-20T06:36:32.552Z,102381.89
2019-04-20T06:39:32.627Z,102380.61
2019-04-20T06:42:21.980Z,102378.80
2019-04-20T06:45:07.350Z,102387.39
2019-04-20T06:48:11.106Z,102381.86
2019-04-20T06:51:25.008Z,102382.00
2019-04-20T06:54:47.155Z,102379.65
2019-04-20T06:57:29.209Z,102386.73
2019-04-20T07:00:17.215Z,102385.30
2019-04-20T07:02:53.094Z,102388.02
2019-04-20T07:05:39.588Z,102387.16
2019-04-20T07:08:35.088Z,102389.61
2019-04-20T07:11:18.694Z,102386.37
2019-04-20T07:13:38.696Z,102381.53
2019-04-20T07:16:36.254Z,102382.11
2019-04-20T07:19:41.659Z,102384.20
2019-04-20T07:22:37.569Z,102380.64
2019-04-20T07:25:40.664Z,102386.87
2019-04-20T07:28:21.842Z,102385.42
2019-04-20T07:31:06.824Z,102384.56
2019-04-20T07:34:22.944Z,102390.05
2019-04-20T07:40:38.352Z,102390.17
2019-04-20T07:44:10.700Z,102393.27
2019-04-20T07:47:13.708Z,102392.92
2019-04-20T07:49:52.600Z,102387.06
2019-04-20T07:52:33.919Z,102385.87
2019-04-20T07:55:56.863Z,102378.02
2019-04-20T07:58:55.304Z,102375.59
2019-04-20T08:02:13.780Z,102385.82
2019-04-20T08:04:59.568Z,102376.22
2019-04-20T08:08:27.131Z,102375.98
2019-04-20T08:11:37.999Z,102375.08
2019-04-20T08:14:32.017Z,102374.69
2019-04-20T08:20:19.108Z,102383.61
2019-04-20T08:23:38.876Z,102375.58
2019-04-20T08:26:28.859Z,102372.25
2019-04-20T08:30:02.020Z,102371.69
2019-04-20T08:33:14.519Z,102376.53
2019-04-20T08:36:18.642Z,102371.92
2019-04-20T08:39:45.111Z,102369.75
2019-04-20T08:42:32.598Z,102364.00
2019-04-20T08:45:10.947Z,102361.47
2019-04-20T08:47:45.871Z,102356.42
2019-04-20T08:50:48.252Z,102362.16
2019-04-20T08:53:44.650Z,102363.96
2019-04-20T08:56:31.948Z,102358.44
2019-04-20T08:59:18.903Z,102356.55
2019-04-20T09:01:58.087Z,102361.73
2019-04-20T09:04:38.753Z,102366.27
2019-04-20T09:07:29.781Z,102354.27
2019-04-20T09:10:28.243Z,102354.20
2019-04-20T09:13:08.361Z,102364.69
2019-04-20T09:15:34.081Z,102357.03
2019-04-20T09:18:52.444Z,102352.15
2019-04-20T09:22:25.183Z,102348.37
2019-04-20T09:25:57.705Z,102346.49
2019-04-20T09:28:32.280Z,102353.22
2019-04-20T09:31:25.851Z,102337.69
2019-04-20T09:34:24.741Z,102347.56
2019-04-20T09:37:40.770Z,102345.95
2019-04-20T09:40:40.230Z,102353.45
2019-04-20T09:43:43.149Z,102350.31
2019-04-20T09:46:26.454Z,102356.35
2019-04-20T09:49:18.602Z,102342.48
2019-04-20T09:52:15.749Z,102347.56
2019-04-20T09:54:54.869Z,102352.78
2019-04-20T09:57:44.026Z,102346.68
2019-04-20T10:00:38.277Z,102344.31
2019-04-20T10:03:00.289Z,102335.92
2019-04-20T10:05:59.283Z,102339.33
2019-04-20T10:09:00.408Z,102339.44
2019-04-20T10:11:50.449Z,102339.87
2019-04-20T10:14:40.706Z,102335.73
2019-04-20T10:17:33.254Z,102336.70
2019-04-20T10:20:11.849Z,102332.57
2019-04-20T10:23:09.400Z,102324.23
2019-04-20T10:26:10.372Z,102333.25
2019-04-20T10:29:19.646Z,102333.74
2019-04-20T10:32:00.170Z,102332.14
2019-04-20T10:34:32.781Z,102331.47
2019-04-20T10:37:27.251Z,102331.66
2019-04-20T10:40:34.651Z,102332.25
2019-04-20T10:43:06.199Z,102331.20
2019-04-20T10:46:00.667Z,102329.27
2019-04-20T10:48:40.307Z,102325.81
2019-04-20T10:51:29.522Z,102327.27
2019-04-20T10:54:40.727Z,102327.05
2019-04-20T10:57:15.424Z,102324.11
2019-04-20T10:59:52.983Z,102319.45
2019-04-20T11:02:53.520Z,102321.90
2019-04-20T11:05:26.507Z,102314.35
2019-04-20T11:08:20.783Z,102308.70
2019-04-20T11:11:32.003Z,102314.27
2019-04-20T11:14:17.966Z,102303.78
2019-04-20T11:17:07.153Z,102303.59
2019-04-20T11:19:41.144Z,102309.67
2019-04-20T11:22:40.214Z,102302.55
2019-04-20T11:25:16.583Z,102297.02
2019-04-20T11:28:14.288Z,102287.73
2019-04-20T11:31:05.919Z,102295.63
2019-04-20T11:33:58.301Z,102292.94
2019-04-20T11:36:50.824Z,102284.27
2019-04-20T11:39:41.171Z,102279.98
2019-04-20T11:42:13.997Z,102272.12
2019-04-20T11:45:04.638Z,102275.65
2019-04-20T11:47:57.801Z,102274.93
2019-04-20T11:51:05.515Z,102259.72
2019-04-20T11:54:14.596Z,102262.54
2019-04-20T11:57:04.260Z,102260.12
2019-04-20T11:59:59.217Z,102260.87
2019-04-20T12:02:46.509Z,102256.29
2019-04-20T12:06:07.073Z,102248.86
2019-04-20T12:08:42.735Z,102242.03
2019-04-20T12:12:14.183Z,102243.03
2019-04-20T12:14:39.260Z,102245.79
2019-04-20T12:17:19.779Z,102232.98
2019-04-20T12:20:29.055Z,102236.37
2019-04-20T12:23:20.225Z,102226.05
2019-04-20T12:25:56.301Z,102215.23
2019-04-20T12:28:35.815Z,102218.59
2019-04-20T12:31:23.693Z,102218.98
2019-04-20T12:34:02.189Z,102220.64
2019-04-20T12:36:58.256Z,102216.52
2019-04-20T12:39:53.317Z,102218.11
2019-04-20T12:42:54.940Z,102205.44
2019-04-20T12:45:37.782Z,102203.91
2019-04-20T12:48:35.525Z,102203.69
2019-04-20T12:51:33.796Z,102198.41
2019-04-20T12:54:39.960Z,102194.69
2019-04-20T12:57:28.936Z,102204.07
2019-04-20T13:00:03.571Z,102199.41
2019-04-20T13:02:54.143Z,102189.87
2019-04-20T13:05:25.664Z,102183.47
2019-04-20T13:08:13.763Z,102188.95
2019-04-20T13:10:56.200Z,102179.72
2019-04-20T13:13:46.682Z,102183.19
2019-04-20T13:16:32.279Z,102183.04
2019-04-20T13:19:51.530Z,102173.50
2019-04-20T13:22:25.594Z,102167.39
2019-04-20T13:25:01.028Z,102171.96
2019-04-20T13:27:38.846Z,102163.73
2019-04-20T13:30:50.004Z,102157.41
2019-04-20T13:33:29.634Z,102159.84
2019-04-20T13:36:42.094Z,102154.86
2019-04-20T13:39:53.058Z,102152.06
2019-04-20T13:42:43.695Z,102149.06
2019-04-20T13:45:42.662Z,102151.87
2019-04-20T13:48:27.158Z,102149.56
2019-04-20T13:51:05.578Z,102145.45
2019-04-20T13:53:57.514Z,102134.02
2019-04-20T13:57:11.174Z,102137.97
2019-04-20T13:59:53.776Z,102130.50
2019-04-20T14:02:53.939Z,102126.09
2019-04-20T14:05:53.021Z,102122.23
2019-04-20T14:08:41.233Z,102125.70
2019-04-20T14:11:17.722Z,102115.17
2019-04-20T14:14:27.203Z,102117.63
2019-04-20T14:17:19.092Z,102115.52
2019-04-20T14:20:12.130Z,102111.17
2019-04-20T14:23:07.338Z,102109.52
2019-04-20T14:25:55.176Z,102094.51
2019-04-20T14:29:07.272Z,102103.91
2019-04-20T14:32:00.574Z,102105.86
2019-04-20T14:34:35.115Z,102095.80
2019-04-20T14:37:20.341Z,102097.61
2019-04-20T14:39:56.447Z,102096.64
2019-04-20T14:42:41.872Z,102099.67
2019-04-20T14:45:08.916Z,102098.68
2019-04-20T14:47:41.455Z,102099.89
2019-04-20T14:50:13.759Z,102087.18
2019-04-20T14:52:45.044Z,102084.90
2019-04-20T14:55:17.740Z,102091.41
2019-04-20T14:57:49.891Z,102081.55
2019-04-20T15:00:45.795Z,102084.69
2019-04-20T15:03:45.537Z,102082.70
2019-04-20T15:06:17.848Z,102074.69
2019-04-20T15:08:50.438Z,102068.98
2019-04-20T15:11:22.972Z,102070.44
2019-04-20T15:13:54.360Z,102058.37
2019-04-20T15:16:26.582Z,102059.72
2019-04-20T15:19:15.847Z,102060.94
2019-04-20T15:21:49.479Z,102055.23
2019-04-20T15:24:21.817Z,102059.12
2019-04-20T15:26:54.248Z,102055.94
2019-04-20T15:29:26.424Z,102060.02
2019-04-20T15:31:57.800Z,102065.56
2019-04-20T15:34:29.175Z,102067.50
2019-04-20T15:37:00.528Z,102064.31
2019-04-20T15:39:32.859Z,102059.99
2019-04-20T15:42:09.651Z,102065.62
2019-04-20T15:44:47.253Z,102062.72
2019-04-20T15:47:22.353Z,102065.20
2019-04-20T15:49:58.085Z,102062.11
2019-04-20T15:52:36.790Z,102060.56
2019-04-20T15:55:11.840Z,102058.22
2019-04-20T15:57:38.768Z,102050.84
2019-04-20T16:00:10.999Z,102054.91
2019-04-20T16:03:05.444Z,102053.14
2019-04-20T16:05:56.522Z,102054.16
2019-04-20T16:08:32.419Z,102047.48
2019-04-20T16:11:15.121Z,102054.20
2019-04-20T16:13:50.510Z,102050.78
2019-04-20T16:16:19.930Z,102048.59
2019-04-20T16:18:52.915Z,102047.55
2019-04-20T16:21:27.624Z,102049.50
2019-04-20T16:24:10.910Z,102051.37
2019-04-20T16:27:07.646Z,102050.95
2019-04-20T16:29:39.743Z,102048.16
2019-04-20T16:32:12.217Z,102038.90
2019-04-20T16:34:44.531Z,102042.03
2019-04-20T16:37:16.908Z,102040.34
2019-04-20T16:39:48.443Z,102035.82
2019-04-20T16:42:20.272Z,102031.14
2019-04-20T16:44:51.680Z,102034.39
2019-04-20T16:47:24.040Z,102033.50
2019-04-20T16:49:55.349Z,102032.50
2019-04-20T16:52:26.740Z,102027.78
2019-04-20T16:54:57.960Z,102034.13
2019-04-20T16:57:29.853Z,102024.17
2019-04-20T17:00:02.788Z,102021.84
2019-04-20T17:02:34.572Z,102016.81
2019-04-20T17:05:07.146Z,102015.80
2019-04-20T17:07:42.847Z,102017.52
2019-04-20T17:10:20.070Z,102021.46
2019-04-20T17:12:53.683Z,102022.87
2019-04-20T17:15:25.530Z,102011.90
2019-04-20T17:17:58.805Z,102017.66
2019-04-20T17:20:30.644Z,102013.02
2019-04-20T17:23:04.848Z,102010.85
2019-04-20T17:25:35.309Z,102017.57
2019-04-20T17:28:32.851Z,102020.25
2019-04-20T17:31:15.906Z,102019.98
2019-04-20T17:34:27.186Z,102031.58
2019-04-20T17:36:42.271Z,102020.16
2019-04-20T17:39:25.261Z,102023.59
2019-04-20T17:42:03.414Z,102021.30
2019-04-20T17:44:35.950Z,102010.03
2019-04-20T17:47:03.806Z,102026.16
2019-04-20T17:49:39.101Z,102027.96
2019-04-20T17:52:26.629Z,102025.18
2019-04-20T17:54:43.119Z,102022.06
2019-04-20T17:57:15.221Z,102023.11
2019-04-20T17:59:53.183Z,102019.66
2019-04-20T18:03:06.036Z,102028.62
2019-04-20T18:05:48.182Z,102027.94
2019-04-20T18:08:22.442Z,102035.02
2019-04-20T18:10:47.493Z,102030.32
2019-04-20T18:13:14.257Z,102036.77
2019-04-20T18:15:58.883Z,102037.59
2019-04-20T18:18:44.092Z,102040.33
2019-04-20T18:21:26.723Z,102040.48
2019-04-20T18:23:58.291Z,102046.84
2019-04-20T18:26:47.951Z,102038.88
2019-04-20T18:29:20.217Z,102040.15
2019-04-20T18:31:51.415Z,102036.66
2019-04-20T18:34:51.243Z,102041.13
2019-04-20T18:37:21.411Z,102038.56
2019-04-20T18:39:57.270Z,102039.38
2019-04-20T18:42:32.367Z,102047.48
2019-04-20T18:45:16.030Z,102045.28
2019-04-20T18:47:49.022Z,102052.45
2019-04-20T18:50:10.528Z,102054.34
2019-04-20T18:52:40.150Z,102050.85
2019-04-20T18:55:17.313Z,102052.11
2019-04-20T18:57:44.892Z,102048.58
2019-04-20T19:00:28.048Z,102053.81
2019-04-20T19:02:56.069Z,102052.12
2019-04-20T19:05:26.440Z,102056.39
2019-04-20T19:08:05.217Z,102057.90
2019-04-20T19:10:36.805Z,102061.47
2019-04-20T19:13:21.538Z,102059.58
2019-04-20T19:16:16.504Z,102059.11
2019-04-20T19:18:56.043Z,102060.21
2019-04-20T19:21:15.173Z,102063.41
2019-04-20T19:23:55.962Z,102070.25
2019-04-20T19:26:22.818Z,102071.81
2019-04-20T19:28:56.431Z,102072.08
2019-04-20T19:31:42.367Z,102076.41
2019-04-20T19:34:16.722Z,102070.95
2019-04-20T19:36:38.891Z,102070.69
2019-04-20T19:39:24.484Z,102076.56
2019-04-20T19:41:49.781Z,102069.81
2019-04-20T19:44:24.161Z,102076.18
2019-04-20T19:47:11.375Z,102075.76
2019-04-20T19:49:32.880Z,102074.41
2019-04-20T19:52:36.957Z,102076.00
2019-04-20T19:54:50.826Z,102076.91
2019-04-20T19:57:22.172Z,102077.37
2019-04-20T19:59:41.266Z,102073.37
2019-04-20T20:02:11.781Z,102073.75
2019-04-20T20:05:04.070Z,102077.91
2019-04-20T20:07:37.966Z,102079.34
2019-04-20T20:10:08.704Z,102076.79
2019-04-20T20:12:47.053Z,102068.05
2019-04-20T20:15:22.031Z,102076.23
2019-04-20T20:18:11.016Z,102074.16
2019-04-20T20:20:47.617Z,102070.44
2019-04-20T20:23:01.869Z,102075.85
2019-04-20T20:25:38.426Z,102074.80
2019-04-20T20:28:18.821Z,102064.09
2019-04-20T20:30:56.607Z,102074.38
2019-04-20T20:33:34.901Z,102074.07
2019-04-20T20:36:02.233Z,102073.46
2019-04-20T20:38:31.551Z,102074.47
2019-04-20T20:41:08.715Z,102065.92
2019-04-20T20:43:47.467Z,102076.69
2019-04-20T20:46:16.224Z,102077.03
2019-04-20T20:49:03.469Z,102078.39
2019-04-20T20:51:34.494Z,102082.59
2019-04-20T20:53:54.601Z,102085.13
2019-04-20T20:56:27.420Z,102079.42
2019-04-20T20:59:00.883Z,102080.50
2019-04-20T21:01:26.450Z,102085.20
2019-04-20T21:03:58.498Z,102087.07
2019-04-20T21:06:30.691Z,102087.60
2019-04-20T21:09:03.661Z,102082.39
2019-04-20T21:11:36.352Z,102084.92
2019-04-20T21:14:08.941Z,102080.85
2019-04-20T21:16:48.801Z,102082.39
2019-04-20T21:19:29.609Z,102079.02
2019-04-20T21:21:57.094Z,102081.23
2019-04-20T21:24:28.747Z,102083.08
2019-04-20T21:27:07.021Z,102074.00
2019-04-20T21:29:37.842Z,102081.89
2019-04-20T21:32:12.567Z,102076.19
2019-04-20T21:34:42.418Z,102079.23
2019-04-20T21:37:18.929Z,102072.83
2019-04-20T21:39:53.920Z,102071.83
2019-04-20T21:42:24.402Z,102081.55
2019-04-20T21:45:04.592Z,102078.05
2019-04-20T21:47:31.538Z,102075.83
2019-04-20T21:50:18.754Z,102067.95
2019-04-20T21:52:38.747Z,102076.17
2019-04-20T21:55:06.013Z,102075.97
2019-04-20T21:57:44.724Z,102070.28
2019-04-20T22:00:26.172Z,102068.60
2019-04-20T22:02:56.734Z,102077.83
2019-04-20T22:05:21.406Z,102078.67
2019-04-20T22:07:52.667Z,102072.28
2019-04-20T22:10:27.670Z,102069.59
2019-04-20T22:13:00.966Z,102075.13
2019-04-20T22:15:33.584Z,102072.75
2019-04-20T22:18:06.819Z,102073.86
2019-04-20T22:20:49.432Z,102066.80
2019-04-20T22:23:23.146Z,102068.41
2019-04-20T22:25:56.547Z,102062.16
2019-04-20T22:28:16.025Z,102066.98
2019-04-20T22:30:48.380Z,102063.97
2019-04-20T22:33:31.342Z,102056.80
2019-04-20T22:36:00.889Z,102064.84
2019-04-20T22:38:55.839Z,102058.12
2019-04-20T22:41:24.713Z,102055.90
2019-04-20T22:43:54.814Z,102053.94
2019-04-20T22:46:31.757Z,102055.59
2019-04-20T22:49:17.395Z,102059.22
2019-04-20T22:51:44.851Z,102052.03
2019-04-20T22:54:21.661Z,102049.23
2019-04-20T22:56:51.387Z,102047.24
2019-04-20T22:59:16.486Z,102044.69
2019-04-20T23:01:48.540Z,102040.27
2019-04-20T23:04:17.362Z,102039.54
2019-04-20T23:06:51.638Z,102037.16
2019-04-20T23:09:22.626Z,102034.18
2019-04-20T23:12:01.010Z,102030.00
2019-04-20T23:14:27.028Z,102023.08
2019-04-20T23:16:58.270Z,102023.71
2019-04-20T23:19:38.222Z,102015.45
2019-04-20T23:22:05.375Z,102013.81
2019-04-20T23:24:35.627Z,102009.69
2019-04-20T23:27:13.969Z,102022.92
2019-04-20T23:29:41.641Z,102010.77
2019-04-20T23:32:14.556Z,102001.61
2019-04-20T23:34:49.027Z,101999.02
2019-04-20T23:37:25.472Z,102004.02
2019-04-20T23:39:53.100Z,101997.47
2019-04-20T23:42:33.585Z,101992.61
2019-04-20T23:45:31.422Z,101994.52
2019-04-20T23:48:04.861Z,101985.87
2019-04-20T23:50:50.746Z,101988.45
2019-04-20T23:53:25.719Z,101983.28
2019-04-20T23:55:41.733Z,101977.98
2019-04-20T23:58:14.691Z,101982.80
